Petersburg, AK

1:47 PM AKDT on March 24, 2017 (GMT -0800)
Johnson Petersburg | | Change Station

Elev 105 ft 56.80 °N, 132.95 °W | Updated 11 minutes ago

Overcast
Overcast
34 °F
Feels Like 31 °F
N
4
Wind Variable Wind from ENE

Today
High -- | Low -- °F
--% Chance of Precip.
Yesterday
High -- | Low -- °F
Precip. -- in
Pressure 29.52 in
Visibility 2.5 miles
Clouds Overcast 1100 ft
Windchill 31 °F
Dew Point 32 °F
Humidity 93%
Rainfall 0.06 in
Snow Depth Not available.
6:41 AM 7:15 PM
Waning Crescent, 12% visible
METAR PAPG 242136Z 07003KT 2 1/2SM OVC011 01/00 A2952 RMK AO1 -SN
Pressure 29.52 in
Visibility 2.5 miles
Clouds Overcast 1100 ft
Windchill 31 °F
Dew Point 32 °F
Humidity 93%
Rainfall 0.06 in
Snow Depth Not available.
6:41 AM 7:15 PM
Waning Crescent, 12% visible
METAR PAPG 242136Z 07003KT 2 1/2SM OVC011 01/00 A2952 RMK AO1 -SN

Get Severe Weather Alerts

Thanks for signing up!

Be on the lookout for a verification email in your inbox.

You'll start receiving the daily forecast at 8 AM.

×

10-Day Weather Forecast

Almanac

Astronomy

Mar. 24, 2017 Rise Set
Actual Time
Civil Twilight
Nautical Twilight
Astronomical Twilight
Moon
Length of Visible Light
Length of Day
Tomorrow will be .
, % of the Moon is Illuminated

Today's Extremes

State Highs State Lows

Community

WunderPhotos

Upload Photos

1,962,540 photos uploaded!

WunderBlog® & News

Nearby

Air Quality

  Air Quality AQ Index Pollutant
Not available.

Snow Depth

Station Depth Elevation

Earthquake Activity

City Distance Mag. Time & Date
Minimum magnitude displayed is 2.5.

Earthquake Activity

City Distance Mag. Time & Date
Minimum magnitude displayed is 2.5.

Coastal Water Temperatures

Place Temperature

Stations

Nearby Weather Stations

Station Location Temp. Windchill Dew Point Humidity Wind Precip. Elev Updated Type
                   

Watches & Warnings

There are currently no watches in effect.